Time;durP1;ratioP1;P1;durP2;ratioP2;P2;SDS_P1;SDS_P2;PMS_P1;PMS_P2;Temp;Humidity;BMP_temperature;BMP_pressure;BME280_temperature;BME280_humidity;BME280_pressure;Samples;Min_cycle;Max_cycle;Signal;HPM_P1;HPM_P2
2023/11/18 00:03:55;;;;;;;6.07;5.57;;;9.70;46.20;;;;;;10281043;28;20231;-79
2023/11/18 00:08:59;;;;;;;4.10;3.80;;;9.80;46.20;;;;;;10278160;28;20242;-77
2023/11/18 00:14:04;;;;;;;3.00;2.80;;;9.80;46.00;;;;;;10258776;28;20225;-77
2023/11/18 00:19:09;;;;;;;3.37;3.00;;;9.80;45.80;;;;;;10286778;28;20235;-79
2023/11/18 00:24:14;;;;;;;3.50;3.20;;;9.80;45.70;;;;;;10286839;28;20231;-77
2023/11/18 00:29:17;;;;;;;2.97;2.77;;;9.80;45.80;;;;;;10281878;28;20242;-77
2023/11/18 00:34:21;;;;;;;1.90;1.73;;;9.80;45.70;;;;;;10287815;28;20262;-77
2023/11/18 00:39:26;;;;;;;1.70;1.60;;;9.70;45.50;;;;;;10284498;28;20231;-77
2023/11/18 00:44:30;;;;;;;1.67;1.57;;;9.70;45.60;;;;;;10284045;28;20227;-76
2023/11/18 00:49:33;;;;;;;1.40;1.30;;;9.60;45.50;;;;;;10286330;28;20228;-77
2023/11/18 00:54:38;;;;;;;1.43;1.40;;;9.60;45.60;;;;;;10284177;28;20231;-79
2023/11/18 00:59:45;;;;;;;1.60;1.50;;;9.60;45.80;;;;;;10283893;28;20675;-77
2023/11/18 01:04:48;;;;;;;1.87;1.77;;;9.60;46.00;;;;;;10282323;28;20306;-77
2023/11/18 01:09:52;;;;;;;1.90;1.80;;;9.60;45.70;;;;;;10280193;28;20227;-77
2023/11/18 01:14:56;;;;;;;1.60;1.50;;;9.50;45.90;;;;;;10283825;28;20308;-79
2023/11/18 01:20:01;;;;;;;1.67;1.50;;;9.60;45.80;;;;;;10279362;28;20229;-77
2023/11/18 01:25:08;;;;;;;1.80;1.70;;;9.60;45.60;;;;;;10260705;28;20227;-77
2023/11/18 01:30:12;;;;;;;1.57;1.47;;;9.60;45.80;;;;;;10276485;28;20722;-76
2023/11/18 01:35:16;;;;;;;1.73;1.63;;;9.50;45.50;;;;;;10284393;28;20320;-77
2023/11/18 01:40:21;;;;;;;1.50;1.40;;;9.50;45.50;;;;;;10288508;28;20231;-77
2023/11/18 01:45:26;;;;;;;1.13;1.13;;;9.50;45.70;;;;;;10287311;28;20236;-77
2023/11/18 01:50:30;;;;;;;1.33;1.30;;;9.50;45.70;;;;;;10282023;28;20329;-77
2023/11/18 01:55:34;;;;;;;1.30;1.27;;;9.60;45.90;;;;;;10278957;28;20726;-78
2023/11/18 02:00:39;;;;;;;1.20;1.20;;;9.60;45.90;;;;;;10276574;28;20262;-78
2023/11/18 02:05:43;;;;;;;1.40;1.40;;;9.60;45.90;;;;;;10281848;28;20310;-77
2023/11/18 02:10:55;;;;;;;1.50;1.40;;;9.60;45.80;;;;;;10286611;28;20311;-77
2023/11/18 02:16:00;;;;;;;1.40;1.30;;;9.70;46.10;;;;;;10284271;28;20807;-77
2023/11/18 02:21:05;;;;;;;1.70;1.60;;;9.70;45.60;;;;;;10276693;28;20231;-77
2023/11/18 02:26:09;;;;;;;1.67;1.57;;;9.70;45.60;;;;;;10280132;28;20673;-77
2023/11/18 02:31:21;;;;;;;1.53;1.43;;;9.70;45.80;;;;;;10279492;28;20251;-77
2023/11/18 02:36:35;;;;;;;1.60;1.50;;;9.80;46.00;;;;;;10274485;28;20231;-76
2023/11/18 02:41:45;;;;;;;1.97;1.87;;;9.80;46.00;;;;;;10275678;28;20758;-77
2023/11/18 02:46:48;;;;;;;1.80;1.70;;;9.80;45.90;;;;;;10281586;28;20255;-79
2023/11/18 02:51:52;;;;;;;1.87;1.77;;;9.80;45.80;;;;;;10280360;28;20239;-77
2023/11/18 02:56:57;;;;;;;2.23;2.07;;;9.80;45.80;;;;;;10283083;28;20237;-77
2023/11/18 03:02:01;;;;;;;1.83;1.73;;;9.80;45.90;;;;;;10287264;28;20314;-76
2023/11/18 03:07:06;;;;;;;2.40;2.30;;;9.80;45.80;;;;;;10276039;28;20234;-77
2023/11/18 03:12:11;;;;;;;2.00;1.90;;;9.80;45.50;;;;;;10282007;28;20702;-78
2023/11/18 03:17:14;;;;;;;2.03;1.93;;;9.80;45.60;;;;;;10277497;28;20714;-77
2023/11/18 03:22:18;;;;;;;2.27;2.17;;;9.80;45.60;;;;;;10280930;28;20239;-79
2023/11/18 03:27:22;;;;;;;2.00;1.90;;;9.80;45.70;;;;;;10274661;28;20231;-77
2023/11/18 03:32:26;;;;;;;2.10;2.00;;;9.80;45.70;;;;;;10279029;28;20235;-77
2023/11/18 03:37:29;;;;;;;2.40;2.20;;;9.80;45.60;;;;;;10273717;28;20311;-77
2023/11/18 03:42:36;;;;;;;2.77;2.53;;;9.90;45.60;;;;;;10276537;28;20232;-77
2023/11/18 03:47:40;;;;;;;2.80;2.60;;;9.80;45.40;;;;;;10280588;28;20238;-76
2023/11/18 03:52:43;;;;;;;2.70;2.50;;;9.80;45.20;;;;;;10276768;28;20302;-76
2023/11/18 03:57:47;;;;;;;3.20;3.00;;;9.80;45.40;;;;;;10274138;28;20722;-77
2023/11/18 04:02:50;;;;;;;3.47;3.13;;;9.80;45.60;;;;;;10276693;28;20318;-79
2023/11/18 04:07:54;;;;;;;4.43;4.13;;;9.80;45.70;;;;;;10277293;28;20336;-79
2023/11/18 04:12:58;;;;;;;4.33;4.03;;;9.70;45.40;;;;;;10278642;28;21031;-77
2023/11/18 04:18:02;;;;;;;4.80;4.50;;;9.70;45.60;;;;;;10270664;28;20257;-77
2023/11/18 04:23:05;;;;;;;5.40;5.00;;;9.70;45.70;;;;;;10274987;28;20234;-77
2023/11/18 04:28:10;;;;;;;5.20;4.90;;;9.70;45.70;;;;;;10279167;28;20224;-77
2023/11/18 04:33:14;;;;;;;6.00;5.50;;;9.70;45.90;;;;;;10279408;28;20223;-77
2023/11/18 04:38:17;;;;;;;6.10;5.60;;;9.70;45.80;;;;;;10282558;28;20237;-77
2023/11/18 04:43:23;;;;;;;5.00;4.60;;;9.70;46.60;;;;;;10282220;28;20227;-77
2023/11/18 04:48:41;;;;;;;6.13;5.70;;;9.70;46.10;;;;;;10284194;28;20229;-77
2023/11/18 04:53:45;;;;;;;6.10;5.70;;;9.70;46.00;;;;;;10279109;28;20235;-77
2023/11/18 04:58:50;;;;;;;6.17;5.67;;;9.80;45.90;;;;;;10281278;28;20649;-77
2023/11/18 05:03:54;;;;;;;5.70;5.30;;;9.80;45.90;;;;;;10283136;28;20220;-77
2023/11/18 05:08:57;;;;;;;7.20;6.60;;;9.80;45.80;;;;;;10284359;28;20235;-77
2023/11/18 05:14:02;;;;;;;8.00;7.20;;;9.80;45.70;;;;;;10278756;28;20224;-77
2023/11/18 05:19:07;;;;;;;6.40;5.90;;;9.80;45.70;;;;;;10275022;28;20283;-77
2023/11/18 05:24:10;;;;;;;6.20;5.70;;;9.80;45.70;;;;;;10277298;28;20320;-77
2023/11/18 05:29:16;;;;;;;6.20;5.70;;;9.70;45.80;;;;;;10282129;28;20227;-77
2023/11/18 05:34:20;;;;;;;6.17;5.67;;;9.70;45.70;;;;;;10277945;28;20240;-77
2023/11/18 05:39:24;;;;;;;6.30;5.80;;;9.60;45.50;;;;;;10279566;28;20584;-77
2023/11/18 05:44:37;;;;;;;6.70;5.97;;;9.60;45.60;;;;;;10283154;28;20246;-79
2023/11/18 05:49:40;;;;;;;5.77;5.33;;;9.50;45.70;;;;;;10286822;28;20238;-77
2023/11/18 05:54:43;;;;;;;6.20;5.70;;;9.40;45.80;;;;;;10281605;28;20223;-77
2023/11/18 05:59:48;;;;;;;5.80;5.30;;;9.40;45.90;;;;;;10275571;28;20714;-77
2023/11/18 06:04:54;;;;;;;5.80;5.40;;;9.40;46.00;;;;;;10279065;28;20231;-75
2023/11/18 06:09:58;;;;;;;7.60;7.00;;;9.40;45.90;;;;;;10281606;28;20669;-75
2023/11/18 06:15:02;;;;;;;7.53;6.87;;;9.40;45.90;;;;;;10271695;28;20315;-75
2023/11/18 06:20:06;;;;;;;5.77;5.37;;;9.40;46.10;;;;;;10298021;28;20238;-74
2023/11/18 06:25:12;;;;;;;6.07;5.57;;;9.50;46.10;;;;;;10270514;28;20227;-75
2023/11/18 06:30:17;;;;;;;6.07;5.57;;;9.50;45.90;;;;;;10284974;28;20235;-74
2023/11/18 06:35:22;;;;;;;5.93;5.47;;;9.50;45.70;;;;;;10278221;28;20942;-74
2023/11/18 06:40:26;;;;;;;6.13;5.63;;;9.60;45.60;;;;;;10284447;28;20332;-75
2023/11/18 06:45:32;;;;;;;6.20;5.60;;;9.60;45.60;;;;;;10297070;28;20724;-75
2023/11/18 06:50:35;;;;;;;6.53;5.93;;;9.50;45.50;;;;;;10285068;28;20745;-75
2023/11/18 06:55:38;;;;;;;5.97;5.47;;;9.50;45.40;;;;;;10287711;28;20227;-75
2023/11/18 07:00:43;;;;;;;6.60;6.00;;;9.40;45.50;;;;;;10285501;28;20251;-75
2023/11/18 07:05:47;;;;;;;6.23;5.73;;;9.40;45.80;;;;;;10267938;28;20220;-75
2023/11/18 07:10:50;;;;;;;7.00;6.40;;;9.30;45.80;;;;;;10245283;28;20236;-75
2023/11/18 07:15:56;;;;;;;8.07;7.37;;;9.30;45.90;;;;;;10286037;28;20222;-75
2023/11/18 07:21:00;;;;;;;7.30;6.63;;;9.30;46.10;;;;;;10297880;28;20231;-75
2023/11/18 07:26:04;;;;;;;7.73;7.03;;;9.30;46.10;;;;;;10299814;28;20297;-75
2023/11/18 07:31:09;;;;;;;7.37;6.77;;;9.30;46.20;;;;;;10281212;28;20227;-75
2023/11/18 07:36:12;;;;;;;6.20;5.70;;;9.40;46.30;;;;;;10277463;28;20230;-75
2023/11/18 07:41:23;;;;;;;6.07;5.60;;;9.40;46.20;;;;;;10283184;28;20222;-75
2023/11/18 07:46:30;;;;;;;7.37;6.70;;;9.40;45.80;;;;;;10283745;28;20289;-75
2023/11/18 07:51:34;;;;;;;7.00;6.40;;;9.50;46.10;;;;;;10282600;28;20224;-75
2023/11/18 07:56:37;;;;;;;6.50;6.00;;;9.50;46.00;;;;;;10289368;28;20227;-75
2023/11/18 08:01:45;;;;;;;6.90;6.30;;;9.50;46.10;;;;;;10292296;28;20227;-75
2023/11/18 08:06:51;;;;;;;5.90;5.40;;;9.50;46.40;;;;;;10296463;28;20219;-75
2023/11/18 08:11:55;;;;;;;6.03;5.13;;;9.50;46.40;;;;;;10285320;28;20250;-75
2023/11/18 08:17:00;;;;;;;5.53;5.07;;;9.60;46.00;;;;;;10290194;28;20235;-75
2023/11/18 08:22:05;;;;;;;5.50;5.10;;;9.60;46.10;;;;;;10289817;28;20229;-74
2023/11/18 08:27:09;;;;;;;5.40;4.90;;;9.60;46.50;;;;;;10287510;28;20228;-74
2023/11/18 08:32:14;;;;;;;5.40;4.87;;;9.70;46.60;;;;;;10284891;28;20251;-76
2023/11/18 08:37:17;;;;;;;5.27;4.87;;;9.80;46.40;;;;;;10282386;28;20306;-74
2023/11/18 08:42:20;;;;;;;5.27;4.87;;;9.80;46.30;;;;;;10296371;28;20235;-74
2023/11/18 08:47:26;;;;;;;5.57;5.07;;;9.90;46.10;;;;;;10294459;28;20230;-74
2023/11/18 08:52:30;;;;;;;5.20;4.80;;;9.90;46.20;;;;;;10287784;28;20236;-74
2023/11/18 08:57:48;;;;;;;4.47;4.17;;;9.90;45.90;;;;;;10287589;28;20302;-75
2023/11/18 09:02:53;;;;;;;4.80;4.40;;;10.00;45.40;;;;;;10286541;28;20234;-75
2023/11/18 09:07:57;;;;;;;4.70;4.30;;;10.00;45.20;;;;;;10277290;28;20219;-75
2023/11/18 09:13:03;;;;;;;4.63;4.23;;;10.10;45.40;;;;;;10263183;28;20227;-75
2023/11/18 09:18:09;;;;;;;5.60;4.13;;;10.20;45.30;;;;;;10267851;28;20223;-75
2023/11/18 09:23:13;;;;;;;4.50;4.20;;;10.20;45.20;;;;;;10264391;28;20840;-76
2023/11/18 09:28:19;;;;;;;4.03;3.73;;;10.30;45.30;;;;;;10269561;28;20221;-75
2023/11/18 09:33:28;;;;;;;4.00;3.70;;;10.40;46.10;;;;;;10271250;28;20239;-75
2023/11/18 09:38:35;;;;;;;4.23;3.93;;;10.50;45.40;;;;;;10276821;28;20243;-75
2023/11/18 09:43:45;;;;;;;3.90;3.60;;;10.50;45.40;;;;;;10281341;28;20235;-75
2023/11/18 09:48:52;;;;;;;3.90;3.60;;;10.60;45.20;;;;;;10274258;28;20219;-74
2023/11/18 09:54:01;;;;;;;3.73;3.43;;;10.70;45.30;;;;;;10271687;28;20229;-75
2023/11/18 09:59:15;;;;;;;3.40;3.20;;;10.80;45.00;;;;;;10258930;28;20601;-76
2023/11/18 10:04:21;;;;;;;3.80;3.50;;;10.90;44.70;;;;;;10272192;28;20231;-76
2023/11/18 10:09:29;;;;;;;3.60;3.30;;;11.00;44.50;;;;;;10271187;28;20251;-76
2023/11/18 10:14:32;;;;;;;3.70;3.40;;;11.00;44.60;;;;;;10281925;28;20324;-76
2023/11/18 10:19:55;;;;;;;3.90;3.60;;;11.10;44.70;;;;;;10255155;28;20236;-76
2023/11/18 10:25:00;;;;;;;3.30;3.10;;;11.10;44.80;;;;;;10254732;28;20308;-76
2023/11/18 10:30:18;;;;;;;3.50;3.20;;;11.20;44.80;;;;;;10271890;28;20658;-76
2023/11/18 10:35:23;;;;;;;2.97;2.67;;;11.20;44.40;;;;;;10248511;28;20339;-75
2023/11/18 10:40:27;;;;;;;3.00;2.80;;;11.20;44.50;;;;;;10273173;28;20231;-76
2023/11/18 10:45:32;;;;;;;3.20;2.90;;;11.20;44.80;;;;;;10273033;28;20315;-76
2023/11/18 10:50:38;;;;;;;3.00;2.80;;;11.30;44.90;;;;;;10274461;28;20232;-75
2023/11/18 10:55:41;;;;;;;2.40;2.30;;;11.40;44.70;;;;;;10270299;28;20228;-76
2023/11/18 11:00:49;;;;;;;2.80;2.67;;;11.60;44.60;;;;;;10271459;28;20237;-77
2023/11/18 11:05:55;;;;;;;2.33;2.20;;;11.70;44.30;;;;;;10268377;28;20810;-77
2023/11/18 11:11:03;;;;;;;1.87;1.77;;;11.80;44.10;;;;;;10264299;28;20224;-76
2023/11/18 11:16:12;;;;;;;2.30;2.20;;;11.90;43.90;;;;;;10278732;28;20654;-76
2023/11/18 11:21:22;;;;;;;1.93;1.83;;;11.90;43.30;;;;;;10279319;28;20232;-76
2023/11/18 11:26:39;;;;;;;2.20;2.10;;;11.90;43.10;;;;;;10277976;28;20235;-76
2023/11/18 11:31:47;;;;;;;2.20;2.10;;;11.90;42.10;;;;;;10277127;28;20239;-76
2023/11/18 11:36:54;;;;;;;2.20;2.00;;;11.90;42.60;;;;;;10279029;28;20233;-78
2023/11/18 11:41:59;;;;;;;2.17;1.90;;;11.80;42.30;;;;;;10277669;28;20259;-76
2023/11/18 11:47:03;;;;;;;6.73;3.03;;;11.80;42.90;;;;;;10265714;28;20311;-76
2023/11/18 11:52:20;;;;;;;2.33;1.90;;;11.70;42.70;;;;;;10274764;28;20231;-75
2023/11/18 11:57:27;;;;;;;2.30;2.10;;;11.70;42.30;;;;;;10271010;28;20809;-74
2023/11/18 12:02:35;;;;;;;2.63;2.43;;;11.70;42.50;;;;;;10278752;28;20768;-72
2023/11/18 12:07:41;;;;;;;3.33;2.47;;;11.70;42.70;;;;;;10275163;28;20227;-72
2023/11/18 12:12:45;;;;;;;42.23;8.63;;;11.70;42.30;;;;;;10277679;28;20245;-72
2023/11/18 12:18:17;;;;;;;2.70;2.50;;;11.70;43.10;;;;;;10280006;28;20223;-73
2023/11/18 12:23:24;;;;;;;2.40;2.20;;;11.80;41.80;;;;;;10271883;28;20238;-73
2023/11/18 12:28:34;;;;;;;2.70;2.20;;;11.80;42.70;;;;;;10279631;28;20235;-74
2023/11/18 12:34:05;;;;;;;2.07;1.87;;;11.90;43.00;;;;;;10276611;28;20413;-74
2023/11/18 12:40:04;;;;;;;1.90;1.80;;;11.90;41.90;;;;;;10252385;28;20236;-74
2023/11/18 12:45:33;;;;;;;1.87;1.77;;;12.00;41.70;;;;;;10279399;28;20226;-74
2023/11/18 12:50:36;;;;;;;1.90;1.80;;;12.00;41.70;;;;;;10279701;28;20231;-74
2023/11/18 12:55:41;;;;;;;2.83;2.60;;;12.00;42.60;;;;;;10279732;28;20232;-74
2023/11/18 13:00:45;;;;;;;2.73;2.53;;;12.00;41.80;;;;;;10285379;28;20241;-74
2023/11/18 13:05:51;;;;;;;2.60;2.40;;;12.00;42.50;;;;;;10286643;28;20237;-74
2023/11/18 13:10:59;;;;;;;2.00;1.90;;;12.10;42.80;;;;;;10287973;28;20335;-74
2023/11/18 13:16:03;;;;;;;3.60;2.23;;;12.10;41.80;;;;;;10285205;28;20231;-74
2023/11/18 13:21:06;;;;;;;3.50;3.20;;;12.20;41.90;;;;;;10285869;28;20235;-74
2023/11/18 13:26:12;;;;;;;3.50;3.27;;;12.10;41.80;;;;;;10285597;28;20231;-74
2023/11/18 13:31:16;;;;;;;2.27;2.17;;;12.10;41.80;;;;;;10285164;28;20232;-74
2023/11/18 13:36:21;;;;;;;2.57;2.47;;;12.10;41.80;;;;;;10285077;28;20270;-74
2023/11/18 13:41:32;;;;;;;2.40;2.20;;;12.10;41.80;;;;;;10284096;28;20231;-74
2023/11/18 13:46:39;;;;;;;2.23;2.13;;;12.10;41.30;;;;;;10283177;28;20231;-74
2023/11/18 13:51:45;;;;;;;7.43;5.20;;;12.10;41.80;;;;;;10284616;28;20240;-74
2023/11/18 13:56:51;;;;;;;8.23;6.33;;;12.10;44.50;;;;;;10292722;28;20326;-74
2023/11/18 14:01:55;;;;;;;9.10;5.60;;;12.20;42.20;;;;;;10315189;28;20238;-74
2023/11/18 14:07:00;;;;;;;6.53;5.10;;;12.20;41.90;;;;;;10283283;28;20235;-73
2023/11/18 14:12:06;;;;;;;4.50;4.10;;;12.20;41.90;;;;;;10256608;28;21105;-73
2023/11/18 14:17:10;;;;;;;5.67;5.13;;;12.20;41.90;;;;;;10273789;28;20231;-74
2023/11/18 14:22:13;;;;;;;3.70;3.40;;;12.20;41.90;;;;;;10282726;28;20243;-73
2023/11/18 14:27:18;;;;;;;2.73;2.40;;;12.20;41.90;;;;;;10281336;28;20219;-73
2023/11/18 14:32:21;;;;;;;2.40;2.30;;;12.20;41.90;;;;;;10284315;28;20254;-73
2023/11/18 14:37:25;;;;;;;1.87;1.77;;;12.10;41.80;;;;;;10281704;28;20294;-73
2023/11/18 14:42:30;;;;;;;2.20;2.00;;;12.00;41.70;;;;;;10290459;28;20936;-72
2023/11/18 14:47:33;;;;;;;2.60;2.40;;;12.00;41.70;;;;;;10304087;28;20719;-73
2023/11/18 14:52:40;;;;;;;2.80;2.30;;;12.00;41.70;;;;;;10322454;28;20245;-73
2023/11/18 14:57:46;;;;;;;2.70;2.50;;;12.00;41.70;;;;;;10315588;28;20235;-73
2023/11/18 15:02:51;;;;;;;2.43;2.33;;;12.00;41.50;;;;;;10282399;28;20242;-72
2023/11/18 15:07:59;;;;;;;7.37;6.10;;;11.90;41.60;;;;;;10256583;28;20243;-73
2023/11/18 15:13:04;;;;;;;4.60;4.13;;;11.90;41.60;;;;;;10274330;28;20259;-73
2023/11/18 15:18:08;;;;;;;4.40;4.00;;;11.80;41.50;;;;;;10285368;28;20237;-74
2023/11/18 15:23:15;;;;;;;4.70;4.30;;;11.80;41.50;;;;;;10279893;28;20235;-74
2023/11/18 15:28:20;;;;;;;4.30;3.90;;;11.80;41.50;;;;;;10281340;28;20235;-74
2023/11/18 15:33:24;;;;;;;2.83;2.60;;;11.80;41.50;;;;;;10281404;28;20241;-74
2023/11/18 15:38:27;;;;;;;3.23;2.93;;;11.80;41.60;;;;;;10280782;28;20231;-74
2023/11/18 15:43:32;;;;;;;4.07;3.77;;;11.80;41.60;;;;;;10281232;28;20571;-74
2023/11/18 15:48:35;;;;;;;3.77;3.47;;;11.70;41.50;;;;;;10281008;28;20237;-74
2023/11/18 15:53:38;;;;;;;8.77;5.70;;;11.80;41.90;;;;;;10281428;28;20230;-74
2023/11/18 15:58:43;;;;;;;15.50;12.83;;;11.80;42.00;;;;;;10281149;28;20232;-74
2023/11/18 16:03:46;;;;;;;6.10;5.27;;;11.90;41.70;;;;;;10281674;28;20232;-74
2023/11/18 16:08:49;;;;;;;5.30;4.80;;;11.90;41.60;;;;;;10281096;28;20636;-74
2023/11/18 16:13:55;;;;;;;7.40;6.70;;;11.90;41.60;;;;;;10281067;28;20628;-74
2023/11/18 16:19:00;;;;;;;6.17;5.13;;;11.90;41.60;;;;;;10281127;28;20239;-74
2023/11/18 16:24:03;;;;;;;5.67;5.13;;;11.90;41.60;;;;;;10280816;28;20235;-74
2023/11/18 16:29:07;;;;;;;10.13;9.10;;;11.90;41.60;;;;;;10280630;28;20242;-76
2023/11/18 16:34:11;;;;;;;11.00;9.80;;;11.90;41.60;;;;;;10285955;28;20223;-75
2023/11/18 16:39:14;;;;;;;11.97;10.83;;;11.90;41.60;;;;;;10287859;28;20276;-75
2023/11/18 16:44:19;;;;;;;12.47;11.17;;;11.90;41.60;;;;;;10288192;28;20232;-74
2023/11/18 16:49:23;;;;;;;10.07;9.07;;;12.00;41.70;;;;;;10290405;28;20239;-74
2023/11/18 16:54:28;;;;;;;10.13;8.87;;;11.90;41.70;;;;;;10292485;28;20246;-75
2023/11/18 16:59:44;;;;;;;6.93;5.67;;;12.00;41.90;;;;;;10292920;28;20286;-75
2023/11/18 17:04:47;;;;;;;7.17;6.27;;;12.10;41.80;;;;;;10296319;28;20725;-75
2023/11/18 17:09:50;;;;;;;7.33;6.60;;;12.10;41.80;;;;;;10294316;28;20235;-75
2023/11/18 17:14:55;;;;;;;10.23;9.23;;;12.10;41.80;;;;;;10291205;28;20227;-76
2023/11/18 17:19:58;;;;;;;8.63;7.83;;;12.10;41.80;;;;;;10291350;28;20236;-76
2023/11/18 17:25:01;;;;;;;6.30;5.70;;;12.10;41.80;;;;;;10289791;28;20227;-76
2023/11/18 17:30:11;;;;;;;5.97;5.37;;;12.10;41.80;;;;;;10290253;28;20235;-74
2023/11/18 17:35:18;;;;;;;7.70;7.00;;;12.10;41.80;;;;;;10294343;28;20310;-76
2023/11/18 17:40:22;;;;;;;13.83;12.20;;;12.20;41.90;;;;;;10294606;28;20796;-75
2023/11/18 17:45:27;;;;;;;9.63;8.67;;;12.10;41.80;;;;;;10288471;28;20230;-74
2023/11/18 17:50:32;;;;;;;9.00;8.20;;;12.00;41.70;;;;;;10292548;28;20262;-75
2023/11/18 17:55:35;;;;;;;4.57;4.00;;;11.90;41.60;;;;;;10295875;28;20227;-75
2023/11/18 18:00:41;;;;;;;3.33;3.13;;;11.70;41.40;;;;;;10287447;28;20242;-73
2023/11/18 18:05:45;;;;;;;2.93;2.73;;;11.60;41.30;;;;;;10290108;28;20234;-75
2023/11/18 18:10:48;;;;;;;3.03;2.30;;;11.40;41.20;;;;;;10288613;28;20238;-74
2023/11/18 18:15:53;;;;;;;2.23;2.03;;;11.30;41.50;;;;;;10288153;28;20756;-75
2023/11/18 18:20:57;;;;;;;3.40;2.53;;;11.30;41.20;;;;;;10286088;28;20244;-75
2023/11/18 18:26:00;;;;;;;7.17;4.47;;;11.20;41.50;;;;;;10277669;28;20650;-76
2023/11/18 18:31:06;;;;;;;26.10;14.80;;;11.10;41.60;;;;;;10288980;28;21003;-75
2023/11/18 18:36:10;;;;;;;23.47;15.53;;;11.00;41.50;;;;;;10288189;28;20258;-74
2023/11/18 18:41:13;;;;;;;15.87;11.13;;;11.00;41.70;;;;;;10285234;28;20260;-77
2023/11/18 18:46:18;;;;;;;9.17;7.30;;;10.90;42.10;;;;;;10282785;28;20241;-76
2023/11/18 18:51:22;;;;;;;6.23;4.83;;;11.00;42.50;;;;;;10281871;28;20240;-74
2023/11/18 18:56:26;;;;;;;5.93;3.97;;;11.10;42.50;;;;;;10273287;28;20239;-76
2023/11/18 19:01:31;;;;;;;4.67;3.70;;;11.20;42.20;;;;;;10272231;28;20239;-76
2023/11/18 19:06:35;;;;;;;5.90;5.27;;;11.20;42.00;;;;;;10273539;28;20235;-77
2023/11/18 19:11:39;;;;;;;5.97;5.37;;;11.20;41.90;;;;;;10279149;28;20232;-77
2023/11/18 19:16:44;;;;;;;5.23;4.70;;;11.10;41.90;;;;;;10281236;28;20235;-76
2023/11/18 19:21:50;;;;;;;27.87;17.50;;;11.10;41.90;;;;;;10277801;28;20250;-77
2023/11/18 19:26:54;;;;;;;71.23;42.07;;;11.00;42.00;;;;;;10273914;28;20223;-77
2023/11/18 19:31:58;;;;;;;42.57;34.43;;;11.00;41.80;;;;;;10281385;28;20262;-77
2023/11/18 19:37:01;;;;;;;38.07;34.63;;;10.90;41.90;;;;;;10274900;28;20245;-76
2023/11/18 19:42:07;;;;;;;15.70;14.40;;;10.80;42.00;;;;;;10275808;28;20231;-74
2023/11/18 19:47:12;;;;;;;7.60;6.90;;;10.70;42.10;;;;;;10274202;28;20235;-76
2023/11/18 19:52:15;;;;;;;6.43;5.27;;;10.60;42.10;;;;;;10278908;28;20228;-75
2023/11/18 19:57:18;;;;;;;17.83;15.93;;;10.60;42.40;;;;;;10279913;28;20220;-75
2023/11/18 20:02:23;;;;;;;10.67;9.20;;;10.50;42.40;;;;;;10283494;28;20753;-74
2023/11/18 20:07:27;;;;;;;7.40;6.80;;;10.50;42.60;;;;;;10277516;28;20237;-75
2023/11/18 20:12:31;;;;;;;3.80;3.37;;;10.50;42.40;;;;;;10285533;28;20796;-78
2023/11/18 20:17:36;;;;;;;2.70;2.40;;;10.50;42.60;;;;;;10292974;28;21315;-76
2023/11/18 20:22:41;;;;;;;2.53;2.00;;;10.40;42.80;;;;;;10286757;28;20227;-76
2023/11/18 20:27:44;;;;;;;2.03;1.87;;;10.40;42.70;;;;;;10285673;28;20350;-76
2023/11/18 20:32:48;;;;;;;3.80;2.60;;;10.30;42.70;;;;;;10285176;28;20241;-76
2023/11/18 20:37:52;;;;;;;1.80;1.70;;;10.20;43.00;;;;;;10284020;28;20224;-76
2023/11/18 20:42:56;;;;;;;2.13;2.00;;;10.00;43.00;;;;;;10285094;28;20234;-76
2023/11/18 20:48:00;;;;;;;1.70;1.60;;;9.90;44.10;;;;;;10286478;28;20230;-74
2023/11/18 20:53:04;;;;;;;2.60;2.40;;;10.00;43.40;;;;;;10286622;28;20224;-74
2023/11/18 20:58:08;;;;;;;2.10;1.90;;;9.90;44.10;;;;;;10272618;28;20284;-73
2023/11/18 21:03:12;;;;;;;5.83;5.27;;;9.90;44.40;;;;;;10275103;28;20235;-74
2023/11/18 21:08:16;;;;;;;3.60;3.30;;;9.80;44.60;;;;;;10257468;28;20227;-74
2023/11/18 21:13:20;;;;;;;3.23;2.60;;;9.80;44.70;;;;;;10261397;28;20319;-74
2023/11/18 21:18:25;;;;;;;3.43;3.13;;;9.70;44.50;;;;;;10248945;28;20227;-74
2023/11/18 21:23:28;;;;;;;2.90;1.80;;;9.60;44.80;;;;;;10265488;28;20234;-77
2023/11/18 21:28:31;;;;;;;2.03;1.90;;;9.50;44.60;;;;;;10257542;28;20902;-74
2023/11/18 21:33:38;;;;;;;2.00;1.90;;;9.40;44.90;;;;;;10258401;28;20237;-74
2023/11/18 21:38:41;;;;;;;2.03;1.93;;;9.30;45.10;;;;;;10256400;28;20753;-74
2023/11/18 21:43:44;;;;;;;1.47;1.37;;;9.20;45.20;;;;;;10260876;28;20235;-76
2023/11/18 21:48:49;;;;;;;1.87;1.30;;;9.20;45.40;;;;;;10260158;28;20230;-74
2023/11/18 21:53:52;;;;;;;1.33;1.30;;;9.20;45.70;;;;;;10259300;28;20236;-75
2023/11/18 21:58:55;;;;;;;1.40;1.30;;;9.20;45.60;;;;;;10255156;28;20319;-74
2023/11/18 22:04:00;;;;;;;1.40;1.30;;;9.20;45.50;;;;;;10259507;28;20235;-74
2023/11/18 22:09:04;;;;;;;1.40;1.20;;;9.30;45.90;;;;;;10257215;28;20251;-74
2023/11/18 22:14:07;;;;;;;1.40;1.30;;;9.30;45.60;;;;;;10257888;28;20223;-74
2023/11/18 22:19:14;;;;;;;1.23;1.13;;;9.20;45.40;;;;;;10255950;28;20224;-73
2023/11/18 22:24:18;;;;;;;1.40;1.30;;;9.20;45.90;;;;;;10254961;28;20752;-73
2023/11/18 22:29:21;;;;;;;1.30;1.20;;;9.20;45.70;;;;;;10254680;28;20236;-74
2023/11/18 22:34:26;;;;;;;1.23;1.13;;;9.20;45.80;;;;;;10254157;28;20773;-76
2023/11/18 22:39:29;;;;;;;1.07;1.07;;;9.20;46.10;;;;;;10257228;28;20235;-72
2023/11/18 22:44:33;;;;;;;1.10;1.10;;;9.20;45.90;;;;;;10260109;28;20231;-75
2023/11/18 22:49:40;;;;;;;0.80;0.80;;;9.10;46.00;;;;;;10255406;28;20838;-77
2023/11/18 22:54:44;;;;;;;1.10;1.00;;;9.10;46.10;;;;;;10259141;28;20227;-73
2023/11/18 22:59:47;;;;;;;1.50;1.40;;;9.20;46.10;;;;;;10275849;28;20269;-73
2023/11/18 23:04:52;;;;;;;1.33;1.23;;;9.20;46.10;;;;;;10275789;28;20236;-73
2023/11/18 23:09:57;;;;;;;1.10;1.10;;;9.20;46.10;;;;;;10276182;28;21018;-72
2023/11/18 23:15:01;;;;;;;3.37;2.00;;;9.20;46.10;;;;;;10276265;28;20718;-73
2023/11/18 23:20:10;;;;;;;2.03;1.50;;;9.20;46.10;;;;;;10276632;28;20719;-74
2023/11/18 23:25:14;;;;;;;3.80;2.00;;;9.20;46.20;;;;;;10275669;28;20856;-74
2023/11/18 23:30:20;;;;;;;1.67;1.57;;;9.20;46.10;;;;;;10276671;28;20232;-74
2023/11/18 23:35:25;;;;;;;1.80;1.60;;;9.20;46.10;;;;;;10276202;28;20282;-74
2023/11/18 23:40:29;;;;;;;1.40;1.30;;;9.20;46.30;;;;;;10275548;28;20255;-73
2023/11/18 23:45:33;;;;;;;1.17;1.07;;;9.30;46.20;;;;;;10273072;28;20243;-73
2023/11/18 23:50:37;;;;;;;1.73;1.20;;;9.30;46.20;;;;;;10274462;28;20237;-73
2023/11/18 23:55:41;;;;;;;1.40;1.30;;;9.30;46.40;;;;;;10273783;28;20234;-73
